Time;durP1;ratioP1;P1;durP2;ratioP2;P2;SDS_P1;SDS_P2;PMS_P1;PMS_P2;Temp;Humidity;BMP_temperature;BMP_pressure;BME280_temperature;BME280_humidity;BME280_pressure;Samples;Min_cycle;Max_cycle;Signal;HPM_P1;HPM_P2
2022/12/04 00:01:08;;;;;;;40.28;17.15;;;1.00;99.90;;;;;;6244936;23;20339;-94
2022/12/04 00:03:34;;;;;;;38.50;15.93;;;1.00;99.90;;;;;;6244078;23;20334;-91
2022/12/04 00:06:20;;;;;;;41.15;16.25;;;1.00;99.90;;;;;;6218781;23;20377;-91
2022/12/04 00:08:47;;;;;;;40.33;15.90;;;1.00;99.90;;;;;;6245488;23;20523;-92
2022/12/04 00:11:15;;;;;;;42.85;16.00;;;1.00;99.90;;;;;;6232930;23;20008;-92
2022/12/04 00:13:41;;;;;;;42.28;15.98;;;1.00;99.90;;;;;;6250539;23;20342;-91
2022/12/04 00:16:11;;;;;;;36.50;14.80;;;1.00;99.90;;;;;;6243638;23;20031;-91
2022/12/04 00:18:38;;;;;;;37.08;16.15;;;1.00;99.90;;;;;;6219601;23;20050;-91
2022/12/04 00:21:05;;;;;;;41.55;17.55;;;1.00;99.90;;;;;;6245498;22;20083;-92
2022/12/04 00:23:32;;;;;;;36.63;16.15;;;1.00;99.90;;;;;;6244535;23;20091;-92
2022/12/04 00:26:07;;;;;;;44.70;17.80;;;1.00;99.90;;;;;;6243231;23;20063;-92
2022/12/04 00:28:34;;;;;;;41.38;17.17;;;1.00;99.90;;;;;;6243538;23;20016;-91
2022/12/04 00:31:03;;;;;;;39.28;16.63;;;1.00;99.90;;;;;;6243451;23;20342;-90
2022/12/04 00:33:28;;;;;;;41.53;17.48;;;1.00;99.90;;;;;;6244268;23;20012;-92
2022/12/04 00:35:58;;;;;;;44.47;18.52;;;1.00;99.90;;;;;;6245705;23;20012;-92
2022/12/04 00:38:25;;;;;;;37.92;17.10;;;1.00;99.90;;;;;;6243753;23;20342;-92
2022/12/04 00:40:51;;;;;;;41.80;17.38;;;1.00;99.90;;;;;;6243933;23;20012;-91
2022/12/04 00:43:17;;;;;;;43.15;19.83;;;1.00;99.90;;;;;;6243239;23;20066;-92
2022/12/04 00:45:43;;;;;;;43.60;19.05;;;1.00;99.90;;;;;;6244295;23;20020;-92
2022/12/04 00:48:09;;;;;;;45.65;19.10;;;1.00;99.90;;;;;;6243739;23;20013;-91
2022/12/04 00:50:35;;;;;;;43.40;18.50;;;1.00;99.90;;;;;;6218506;23;20008;-92
2022/12/04 00:53:01;;;;;;;40.67;16.33;;;1.00;99.90;;;;;;6243629;23;20004;-91
2022/12/04 00:55:26;;;;;;;40.53;17.55;;;1.00;99.90;;;;;;6243462;23;20499;-91
2022/12/04 00:57:52;;;;;;;36.15;15.10;;;1.00;99.90;;;;;;6242750;23;20019;-92
2022/12/04 01:00:19;;;;;;;38.80;17.20;;;1.00;99.90;;;;;;6242292;23;20046;-92
2022/12/04 01:02:45;;;;;;;41.28;16.98;;;1.00;99.90;;;;;;6243828;23;20023;-92
2022/12/04 01:05:11;;;;;;;41.97;17.38;;;1.00;99.90;;;;;;6217197;23;20016;-91
2022/12/04 01:07:37;;;;;;;38.08;17.05;;;1.00;99.90;;;;;;6243180;23;20016;-92
2022/12/04 01:10:05;;;;;;;48.08;17.67;;;1.00;99.90;;;;;;6243240;23;20008;-90
2022/12/04 01:12:31;;;;;;;38.08;16.48;;;1.00;99.90;;;;;;6243085;23;20040;-92
2022/12/04 01:14:56;;;;;;;38.47;15.52;;;1.00;99.90;;;;;;6243706;23;20012;-91
2022/12/04 01:17:22;;;;;;;40.25;16.60;;;1.00;99.90;;;;;;6242919;23;20306;-90
2022/12/04 01:19:49;;;;;;;38.05;15.32;;;1.00;99.90;;;;;;6217648;23;20046;-91
2022/12/04 01:22:14;;;;;;;42.22;17.67;;;1.00;99.90;;;;;;6217375;23;20357;-88
2022/12/04 01:24:40;;;;;;;41.45;18.05;;;0.90;99.90;;;;;;6243406;23;20012;-91
2022/12/04 01:27:06;;;;;;;42.08;17.77;;;0.90;99.90;;;;;;6242093;23;20019;-89
2022/12/04 01:29:32;;;;;;;42.35;17.15;;;1.00;99.90;;;;;;6218173;23;20008;-92
2022/12/04 01:31:57;;;;;;;40.10;17.77;;;1.00;99.90;;;;;;6243437;23;20058;-92
2022/12/04 01:34:24;;;;;;;41.47;16.98;;;1.00;99.90;;;;;;6244501;23;20501;-92
2022/12/04 01:36:50;;;;;;;43.67;18.00;;;1.00;99.90;;;;;;6242650;23;20012;-91
2022/12/04 01:39:16;;;;;;;41.05;17.13;;;1.00;99.90;;;;;;6216882;23;20004;-91
2022/12/04 01:41:42;;;;;;;39.30;17.80;;;1.00;99.90;;;;;;6243157;23;20042;-92
2022/12/04 01:44:22;;;;;;;48.83;19.48;;;0.90;99.90;;;;;;6243206;23;20008;-92
2022/12/04 01:46:51;;;;;;;44.00;17.98;;;0.90;99.90;;;;;;6244753;23;20105;-91
2022/12/04 01:49:20;;;;;;;45.65;18.67;;;1.00;99.90;;;;;;6244691;23;20515;-93
2022/12/04 01:51:51;;;;;;;43.58;17.98;;;1.00;99.90;;;;;;6219200;23;20314;-91
2022/12/04 01:54:31;;;;;;;43.17;18.00;;;1.00;99.90;;;;;;6244489;23;20438;-88
2022/12/04 01:57:06;;;;;;;42.53;17.13;;;1.00;99.90;;;;;;6244554;23;20044;-91
2022/12/04 01:59:46;;;;;;;41.13;18.10;;;1.00;99.90;;;;;;6245432;23;20020;-91
2022/12/04 02:02:15;;;;;;;41.53;17.45;;;0.90;99.90;;;;;;6244633;23;20161;-91
2022/12/04 02:04:42;;;;;;;44.30;18.85;;;0.90;99.90;;;;;;6245989;23;20023;-92
2022/12/04 02:07:08;;;;;;;40.65;17.08;;;0.90;99.90;;;;;;6251135;23;20016;-89
2022/12/04 02:09:35;;;;;;;37.92;16.38;;;1.00;99.90;;;;;;6256895;23;20312;-91
2022/12/04 02:12:03;;;;;;;42.35;17.05;;;0.90;99.90;;;;;;6224938;23;20062;-91
2022/12/04 02:14:39;;;;;;;40.83;16.95;;;0.90;99.90;;;;;;6247028;23;20038;-93
2022/12/04 02:17:23;;;;;;;44.63;17.80;;;0.90;99.90;;;;;;6247599;22;20020;-92
2022/12/04 02:19:57;;;;;;;35.33;16.38;;;0.90;99.90;;;;;;6244887;23;20019;-90
2022/12/04 02:22:35;;;;;;;40.90;16.13;;;0.90;99.90;;;;;;6219002;23;20012;-91
2022/12/04 02:25:35;;;;;;;42.13;17.25;;;0.90;99.90;;;;;;6244604;23;20090;-92
2022/12/04 02:28:07;;;;;;;39.10;17.67;;;0.90;99.90;;;;;;6100136;23;20013;-93
2022/12/04 02:30:37;;;;;;;38.50;15.13;;;0.90;99.90;;;;;;6100025;23;20022;-92
2022/12/04 02:33:11;;;;;;;41.15;17.42;;;0.90;99.90;;;;;;6099099;23;20507;-93
2022/12/04 02:35:51;;;;;;;40.65;16.75;;;0.90;99.90;;;;;;6099568;23;20017;-93
2022/12/04 02:38:31;;;;;;;40.60;16.95;;;0.90;99.90;;;;;;6123469;23;20021;-92
2022/12/04 02:41:16;;;;;;;43.97;17.65;;;0.90;99.90;;;;;;6075531;23;20082;-91
2022/12/04 02:43:43;;;;;;;39.22;16.80;;;0.90;99.90;;;;;;6099290;23;20344;-92
2022/12/04 02:46:33;;;;;;;43.50;19.17;;;0.90;99.90;;;;;;6075028;23;20014;-92
2022/12/04 02:49:01;;;;;;;41.15;17.02;;;0.90;99.90;;;;;;6099694;23;20014;-90
2022/12/04 02:51:32;;;;;;;43.13;17.40;;;0.90;99.90;;;;;;6123941;23;20018;-92
2022/12/04 02:54:24;;;;;;;37.05;15.98;;;0.90;99.90;;;;;;6075000;23;20051;-90
2022/12/04 02:56:52;;;;;;;44.67;16.10;;;0.90;99.90;;;;;;6098363;23;20014;-91
2022/12/04 02:59:35;;;;;;;43.50;18.17;;;0.80;99.90;;;;;;6123034;23;20014;-92
2022/12/04 03:02:09;;;;;;;39.92;18.15;;;0.90;99.90;;;;;;6075165;23;20020;-93
2022/12/04 03:04:38;;;;;;;38.22;16.40;;;0.90;99.90;;;;;;6233176;23;20024;-90
2022/12/04 03:07:12;;;;;;;38.78;16.08;;;0.90;99.90;;;;;;6244596;23;20016;-91
2022/12/04 03:09:49;;;;;;;46.25;18.48;;;0.80;99.90;;;;;;6219122;23;20048;-91
2022/12/04 03:12:24;;;;;;;44.72;18.92;;;0.80;99.90;;;;;;6244174;23;20023;-93
2022/12/04 03:14:57;;;;;;;43.67;17.73;;;0.90;99.90;;;;;;6247295;22;20012;-91
2022/12/04 03:17:30;;;;;;;38.55;18.50;;;0.90;99.90;;;;;;6243913;23;20023;-93
2022/12/04 03:20:00;;;;;;;41.50;18.70;;;0.90;99.90;;;;;;6218712;23;20023;-91
2022/12/04 03:22:28;;;;;;;45.97;18.90;;;0.90;99.90;;;;;;6244816;23;20008;-90
2022/12/04 03:24:56;;;;;;;46.00;20.50;;;0.80;99.90;;;;;;6246163;22;20077;-92
2022/12/04 03:27:57;;;;;;;52.30;20.20;;;0.90;99.90;;;;;;6244814;23;20087;-91
2022/12/04 03:30:23;;;;;;;49.70;20.33;;;0.80;99.90;;;;;;6138010;23;20095;-92
2022/12/04 03:32:54;;;;;;;45.65;20.77;;;0.80;99.90;;;;;;6219094;23;20426;-93
2022/12/04 03:35:42;;;;;;;46.65;17.95;;;0.80;99.90;;;;;;6243899;23;20369;-90
2022/12/04 03:38:22;;;;;;;46.58;19.48;;;0.80;99.90;;;;;;6245290;22;20039;-92
2022/12/04 03:40:58;;;;;;;41.25;19.05;;;0.80;99.90;;;;;;6243031;23;20068;-92
2022/12/04 03:43:47;;;;;;;47.58;20.58;;;0.80;99.90;;;;;;6244259;23;20330;-91
2022/12/04 03:46:37;;;;;;;46.47;20.38;;;0.90;99.90;;;;;;6220178;23;20307;-90
2022/12/04 03:49:12;;;;;;;45.85;19.30;;;0.90;99.90;;;;;;6223352;23;20016;-92
2022/12/04 03:51:47;;;;;;;38.22;18.27;;;0.80;99.90;;;;;;6246788;23;20012;-92
2022/12/04 03:54:20;;;;;;;45.92;19.25;;;0.80;99.90;;;;;;6220872;23;20097;-91
2022/12/04 03:56:57;;;;;;;38.25;15.00;;;0.80;99.90;;;;;;6253356;22;20023;-92
2022/12/04 03:59:33;;;;;;;45.80;19.80;;;0.80;99.90;;;;;;6252065;23;20024;-93
2022/12/04 04:02:01;;;;;;;48.72;18.17;;;0.80;99.90;;;;;;6254701;23;20063;-93
2022/12/04 04:04:32;;;;;;;51.40;19.00;;;0.80;99.90;;;;;;6261127;23;20008;-92
2022/12/04 04:07:09;;;;;;;41.72;16.35;;;0.80;99.90;;;;;;6258324;23;20012;-91
2022/12/04 04:09:41;;;;;;;41.92;18.02;;;0.80;99.90;;;;;;6257016;23;20413;-90
2022/12/04 04:12:09;;;;;;;43.47;19.63;;;0.80;99.90;;;;;;6260908;22;20072;-91
2022/12/04 04:25:52;;;;;;;50.58;20.13;;;0.80;99.90;;;;;;6244244;23;20459;-92
2022/12/04 04:28:30;;;;;;;46.45;20.73;;;0.80;99.90;;;;;;6244068;23;20015;-91
2022/12/04 04:31:02;;;;;;;48.00;20.10;;;0.70;99.90;;;;;;6242893;23;20048;-90
2022/12/04 04:33:31;;;;;;;45.50;18.50;;;0.70;99.90;;;;;;6244148;23;20092;-91
2022/12/04 04:36:04;;;;;;;46.33;19.50;;;0.70;99.90;;;;;;6243010;23;20023;-94
2022/12/04 04:38:40;;;;;;;47.35;19.90;;;0.70;99.90;;;;;;6219364;23;20048;-92
2022/12/04 04:41:40;;;;;;;45.50;20.38;;;0.70;99.90;;;;;;6242471;23;20012;-92
2022/12/04 04:44:25;;;;;;;46.67;17.93;;;0.70;99.90;;;;;;6197670;23;20027;-90
2022/12/04 04:46:57;;;;;;;43.58;17.52;;;0.70;99.90;;;;;;6244613;23;20552;-91
2022/12/04 04:49:27;;;;;;;45.92;18.83;;;0.70;99.90;;;;;;6242934;23;20016;-90
2022/12/04 04:51:53;;;;;;;44.92;18.83;;;0.70;99.90;;;;;;6217938;23;20012;-90
2022/12/04 04:54:20;;;;;;;45.63;17.08;;;0.70;99.90;;;;;;6244740;22;20064;-90
2022/12/04 04:56:46;;;;;;;47.38;19.98;;;0.70;99.90;;;;;;6243074;23;20012;-91
2022/12/04 04:59:13;;;;;;;50.55;20.48;;;0.70;99.90;;;;;;6244253;23;20019;-90
2022/12/04 05:01:40;;;;;;;43.92;20.15;;;0.70;99.90;;;;;;6244614;23;20024;-88
2022/12/04 05:04:06;;;;;;;49.60;22.75;;;0.70;99.90;;;;;;6242801;23;20016;-91
2022/12/04 05:06:32;;;;;;;53.42;21.05;;;0.60;99.90;;;;;;6245950;22;20004;-90
2022/12/04 05:08:58;;;;;;;48.90;20.23;;;0.60;99.90;;;;;;6245455;23;20019;-90
2022/12/04 05:11:24;;;;;;;43.42;17.95;;;0.60;99.90;;;;;;6245080;22;20413;-92
2022/12/04 05:13:51;;;;;;;48.88;20.92;;;0.60;99.90;;;;;;6244735;23;20034;-89
2022/12/04 05:16:17;;;;;;;47.53;19.65;;;0.60;99.90;;;;;;6244134;23;20325;-92
2022/12/04 05:21:30;;;;;;;47.78;19.67;;;0.60;99.90;;;;;;6198597;22;20030;-91
2022/12/04 05:23:55;;;;;;;44.33;20.00;;;0.60;99.90;;;;;;6243724;23;20079;-87
2022/12/04 05:26:21;;;;;;;46.42;19.98;;;0.60;99.90;;;;;;6244338;23;20024;-92
2022/12/04 05:28:47;;;;;;;43.55;18.33;;;0.60;99.90;;;;;;6243175;23;20035;-91
2022/12/04 05:31:13;;;;;;;42.22;18.60;;;0.60;99.90;;;;;;6244822;23;20369;-92
2022/12/04 05:33:38;;;;;;;46.65;19.17;;;0.60;99.90;;;;;;6217363;23;20012;-93
2022/12/04 05:36:06;;;;;;;49.63;19.45;;;0.60;99.90;;;;;;6243038;23;20099;-89
2022/12/04 05:38:33;;;;;;;51.15;20.05;;;0.60;99.90;;;;;;6243329;23;20031;-92
2022/12/04 05:41:00;;;;;;;40.13;17.45;;;0.60;99.90;;;;;;6243601;23;20008;-89
2022/12/04 05:43:26;;;;;;;48.35;19.55;;;0.60;99.90;;;;;;6243464;23;20059;-91
2022/12/04 05:45:52;;;;;;;47.80;19.80;;;0.60;99.90;;;;;;6218135;23;20015;-91
2022/12/04 05:48:17;;;;;;;46.33;19.98;;;0.60;99.90;;;;;;6242592;23;20051;-90
2022/12/04 05:50:43;;;;;;;41.28;18.80;;;0.60;99.90;;;;;;6244636;23;20011;-89
2022/12/04 05:53:09;;;;;;;49.00;21.17;;;0.60;99.90;;;;;;6218284;23;20205;-90
2022/12/04 05:55:34;;;;;;;44.88;19.30;;;0.60;99.90;;;;;;6245572;23;20012;-90
2022/12/04 05:58:00;;;;;;;47.05;17.67;;;0.60;99.90;;;;;;6219323;23;20016;-89
2022/12/04 06:00:26;;;;;;;43.10;17.60;;;0.60;99.90;;;;;;6250074;23;20016;-89
2022/12/04 06:02:51;;;;;;;43.25;19.33;;;0.60;99.90;;;;;;6255585;23;20061;-89
2022/12/04 06:05:17;;;;;;;47.05;18.92;;;0.60;99.90;;;;;;6244430;23;20043;-90
2022/12/04 06:07:43;;;;;;;43.08;16.80;;;0.60;99.90;;;;;;6243622;23;20012;-91
2022/12/04 06:10:08;;;;;;;44.45;17.67;;;0.60;99.90;;;;;;6242617;23;20684;-91
2022/12/04 06:12:34;;;;;;;46.33;18.95;;;0.60;99.90;;;;;;6245257;22;20009;-89
2022/12/04 06:15:00;;;;;;;40.08;18.05;;;0.60;99.90;;;;;;6245070;23;20077;-90
2022/12/04 06:17:25;;;;;;;41.17;17.70;;;0.60;99.90;;;;;;6217907;23;20142;-90
2022/12/04 06:19:52;;;;;;;46.75;18.10;;;0.60;99.90;;;;;;6243977;23;20091;-92
2022/12/04 06:22:18;;;;;;;42.97;15.80;;;0.60;99.90;;;;;;6245612;23;20016;-92
2022/12/04 06:24:43;;;;;;;38.05;18.25;;;0.80;99.90;;;;;;6246508;22;20014;-90
2022/12/04 06:27:09;;;;;;;46.22;17.38;;;0.70;99.90;;;;;;6220576;23;20493;-91
2022/12/04 06:29:35;;;;;;;43.95;17.38;;;0.70;99.90;;;;;;6219062;23;20456;-92
2022/12/04 06:32:01;;;;;;;35.53;14.50;;;0.70;99.90;;;;;;6245311;23;20008;-91
2022/12/04 06:34:26;;;;;;;42.17;18.58;;;0.70;99.90;;;;;;6248637;23;20381;-91
2022/12/04 06:36:52;;;;;;;40.45;17.42;;;0.70;99.90;;;;;;6239822;23;20004;-90
2022/12/04 06:39:18;;;;;;;44.50;18.00;;;0.70;99.90;;;;;;6270796;22;20023;-92
2022/12/04 06:41:43;;;;;;;42.60;18.42;;;0.70;99.90;;;;;;6270400;23;20016;-91
2022/12/04 06:44:09;;;;;;;42.53;16.60;;;0.70;99.90;;;;;;6271188;23;20019;-91
2022/12/04 06:46:35;;;;;;;42.72;15.93;;;0.70;99.90;;;;;;6270487;23;20039;-91
2022/12/04 06:49:01;;;;;;;41.33;17.85;;;0.70;99.90;;;;;;6271246;22;20008;-90
2022/12/04 06:51:34;;;;;;;49.58;20.30;;;0.70;99.90;;;;;;6271349;23;20046;-90
2022/12/04 06:54:00;;;;;;;40.72;17.55;;;0.70;99.90;;;;;;6271336;22;20023;-90
2022/12/04 06:56:28;;;;;;;45.70;18.60;;;0.70;99.90;;;;;;6272081;22;20000;-90
2022/12/04 06:58:57;;;;;;;38.83;15.95;;;0.70;99.90;;;;;;6246782;22;20008;-89
2022/12/04 07:01:29;;;;;;;39.13;18.02;;;0.60;99.90;;;;;;6271584;22;20031;-92
2022/12/04 07:03:56;;;;;;;40.22;16.17;;;0.60;99.90;;;;;;6270665;23;20006;-92
2022/12/04 07:06:28;;;;;;;41.55;15.20;;;0.60;99.90;;;;;;6272503;22;20259;-93
2022/12/04 07:09:12;;;;;;;39.13;16.35;;;0.60;99.90;;;;;;6272282;22;20008;-90
2022/12/04 07:11:39;;;;;;;49.92;20.45;;;0.60;99.90;;;;;;6270015;22;20016;-87
2022/12/04 07:14:05;;;;;;;42.85;17.90;;;0.60;99.90;;;;;;6267303;23;20059;-88
2022/12/04 07:16:32;;;;;;;51.10;22.27;;;0.60;99.90;;;;;;6268564;23;20008;-88
2022/12/04 07:18:58;;;;;;;47.13;18.45;;;0.60;99.90;;;;;;6267468;22;20346;-89
2022/12/04 07:21:26;;;;;;;44.53;17.33;;;0.60;99.90;;;;;;6254963;23;20012;-89
2022/12/04 07:23:54;;;;;;;43.85;17.52;;;0.60;99.90;;;;;;6245155;23;20067;-90
2022/12/04 07:26:20;;;;;;;42.47;16.98;;;0.60;99.90;;;;;;6245900;22;20016;-89
2022/12/04 07:28:46;;;;;;;40.83;16.38;;;0.60;99.90;;;;;;6246130;22;20433;-88
2022/12/04 07:31:14;;;;;;;44.83;16.35;;;0.60;99.90;;;;;;6243724;23;20016;-88
2022/12/04 07:33:40;;;;;;;45.83;18.30;;;0.60;99.90;;;;;;6246227;22;20011;-88
2022/12/04 07:36:08;;;;;;;42.75;18.88;;;0.60;99.90;;;;;;6243942;23;20008;-89
2022/12/04 07:38:34;;;;;;;47.83;18.75;;;0.60;99.90;;;;;;6244131;23;20016;-88
2022/12/04 07:41:02;;;;;;;41.72;18.70;;;0.60;99.90;;;;;;6244212;23;20083;-92
2022/12/04 07:43:29;;;;;;;48.40;18.33;;;0.60;99.90;;;;;;6213257;23;20016;-88
2022/12/04 07:45:55;;;;;;;50.35;20.13;;;0.60;99.90;;;;;;6214711;23;20016;-87
2022/12/04 07:48:21;;;;;;;49.10;20.88;;;0.60;99.90;;;;;;6214717;23;20067;-89
2022/12/04 07:50:47;;;;;;;46.08;19.33;;;0.60;99.90;;;;;;6187482;23;20009;-87
2022/12/04 07:53:12;;;;;;;41.22;18.27;;;0.60;99.90;;;;;;6214066;23;20369;-88
2022/12/04 07:55:38;;;;;;;44.67;19.63;;;0.60;99.90;;;;;;6214056;23;20009;-88
2022/12/04 07:58:04;;;;;;;41.85;18.17;;;0.60;99.90;;;;;;6163286;23;20074;-89
2022/12/04 08:00:30;;;;;;;45.10;19.20;;;0.70;99.90;;;;;;6219678;23;20032;-89
2022/12/04 08:02:55;;;;;;;48.17;19.13;;;0.70;99.90;;;;;;6192718;23;20048;-88
2022/12/04 08:05:21;;;;;;;46.30;18.52;;;0.70;99.90;;;;;;6188425;23;20017;-86
2022/12/04 08:07:46;;;;;;;43.00;17.70;;;0.70;99.90;;;;;;6214851;23;20017;-88
2022/12/04 08:10:12;;;;;;;45.60;17.90;;;0.70;99.90;;;;;;6187848;23;20086;-88
2022/12/04 08:12:38;;;;;;;48.22;21.83;;;0.70;99.90;;;;;;6162239;23;20381;-87
2022/12/04 08:15:05;;;;;;;48.30;18.17;;;0.70;99.90;;;;;;6187941;23;20024;-88
2022/12/04 08:17:31;;;;;;;53.28;21.15;;;0.70;99.90;;;;;;6188039;23;20040;-88
2022/12/04 08:19:56;;;;;;;45.75;18.48;;;0.70;99.90;;;;;;6187059;23;20145;-86
2022/12/04 08:22:22;;;;;;;49.30;19.52;;;0.80;99.90;;;;;;6216995;23;20413;-93
2022/12/04 08:24:48;;;;;;;40.75;15.52;;;0.80;99.90;;;;;;6163421;23;20008;-87
2022/12/04 08:27:14;;;;;;;46.58;18.50;;;0.80;99.90;;;;;;6162786;23;20147;-88
2022/12/04 08:29:40;;;;;;;43.30;17.60;;;0.80;99.90;;;;;;6189560;23;20023;-89
2022/12/04 08:32:06;;;;;;;46.78;19.60;;;0.80;99.90;;;;;;6217040;23;20008;-91
2022/12/04 08:34:32;;;;;;;43.85;16.52;;;0.80;99.90;;;;;;6216404;23;20009;-90
2022/12/04 08:36:57;;;;;;;44.05;19.65;;;0.80;99.90;;;;;;6196352;23;20088;-90
2022/12/04 08:39:23;;;;;;;49.47;20.40;;;0.80;99.90;;;;;;6181584;23;20107;-91
2022/12/04 08:41:49;;;;;;;48.33;21.02;;;0.80;99.90;;;;;;6244489;23;20003;-89
2022/12/04 08:44:15;;;;;;;46.92;20.60;;;0.80;99.90;;;;;;6233156;23;20044;-89
2022/12/04 08:46:40;;;;;;;51.58;21.63;;;0.90;99.90;;;;;;6262844;23;20020;-90
2022/12/04 08:49:06;;;;;;;49.65;20.95;;;0.80;99.90;;;;;;6256874;23;20015;-84
2022/12/04 08:51:36;;;;;;;50.03;22.02;;;0.90;99.90;;;;;;6265854;22;20004;-90
2022/12/04 08:54:05;;;;;;;51.75;21.73;;;0.90;99.90;;;;;;6265199;23;20015;-90
2022/12/04 08:56:32;;;;;;;45.08;20.17;;;0.90;99.90;;;;;;6245368;22;20020;-90
2022/12/04 08:58:59;;;;;;;46.58;19.70;;;0.90;99.90;;;;;;6270287;22;20008;-91
2022/12/04 09:01:25;;;;;;;51.28;21.45;;;0.90;99.90;;;;;;6270122;22;20035;-91
2022/12/04 09:03:51;;;;;;;49.30;21.30;;;1.10;99.90;;;;;;6245489;22;20000;-91
2022/12/04 09:06:18;;;;;;;53.55;19.02;;;1.00;99.90;;;;;;6244858;22;20004;-90
2022/12/04 09:08:44;;;;;;;51.13;21.92;;;0.90;99.90;;;;;;6269791;22;20026;-91
2022/12/04 09:11:14;;;;;;;53.30;22.63;;;1.00;99.90;;;;;;6270852;22;20047;-91
2022/12/04 09:13:41;;;;;;;47.83;19.33;;;1.00;99.90;;;;;;6269679;22;20000;-91
2022/12/04 09:16:10;;;;;;;51.53;20.73;;;1.00;99.90;;;;;;6239559;23;20016;-92
2022/12/04 09:18:37;;;;;;;49.33;19.05;;;1.00;99.90;;;;;;6270351;22;20071;-90
2022/12/04 09:21:06;;;;;;;52.33;21.85;;;1.10;99.90;;;;;;6268821;22;20035;-91
2022/12/04 09:23:33;;;;;;;45.53;19.25;;;1.10;99.90;;;;;;6270167;22;20044;-91
2022/12/04 09:25:59;;;;;;;46.53;20.35;;;1.10;99.90;;;;;;6269542;22;20064;-92
2022/12/04 09:28:24;;;;;;;44.60;20.85;;;1.20;99.90;;;;;;6269972;22;20004;-90
2022/12/04 09:31:02;;;;;;;46.53;18.33;;;1.30;99.90;;;;;;6270933;22;20035;-90
2022/12/04 09:33:29;;;;;;;47.00;20.23;;;1.20;99.90;;;;;;6244698;22;20039;-93
2022/12/04 09:35:59;;;;;;;43.70;19.90;;;1.20;99.90;;;;;;6269375;22;20020;-91
2022/12/04 09:38:26;;;;;;;45.92;19.60;;;1.20;99.90;;;;;;6268011;22;20016;-90
2022/12/04 09:40:55;;;;;;;48.55;19.83;;;1.20;99.90;;;;;;6258786;23;20008;-91
2022/12/04 09:43:39;;;;;;;46.53;20.42;;;1.30;99.90;;;;;;6238272;23;20017;-91
2022/12/04 09:46:21;;;;;;;45.00;19.20;;;1.30;99.90;;;;;;6238082;23;20020;-90
2022/12/04 09:48:47;;;;;;;48.42;20.73;;;1.30;99.90;;;;;;6269463;22;20004;-90
2022/12/04 09:51:18;;;;;;;52.88;20.30;;;1.30;99.90;;;;;;6241865;23;20012;-93
2022/12/04 09:53:54;;;;;;;48.10;20.45;;;1.40;99.90;;;;;;6241825;23;20027;-91
2022/12/04 09:56:23;;;;;;;45.97;20.17;;;1.30;99.90;;;;;;6238900;23;20016;-93
2022/12/04 09:59:07;;;;;;;51.30;22.02;;;1.40;99.90;;;;;;6231382;23;20012;-91
2022/12/04 10:01:56;;;;;;;44.90;19.80;;;1.40;99.90;;;;;;6234869;23;20027;-94
2022/12/04 10:04:22;;;;;;;52.58;21.08;;;1.40;99.90;;;;;;6202795;23;20023;-92
2022/12/04 10:06:57;;;;;;;42.60;18.13;;;1.40;99.90;;;;;;6249588;23;20009;-94
2022/12/04 10:09:48;;;;;;;43.65;17.30;;;1.50;99.90;;;;;;6223387;23;20040;-94
2022/12/04 10:12:48;;;;;;;43.63;18.10;;;1.50;99.90;;;;;;6225650;23;20012;-92
2022/12/04 10:15:42;;;;;;;40.50;18.33;;;1.50;99.90;;;;;;6250180;23;20012;-94
2022/12/04 10:18:23;;;;;;;47.50;18.27;;;1.50;99.90;;;;;;6250026;23;20027;-93
2022/12/04 10:21:40;;;;;;;43.90;18.45;;;1.50;99.90;;;;;;6250478;23;20016;-92
2022/12/04 10:24:08;;;;;;;42.25;18.98;;;1.60;99.90;;;;;;6197278;22;20017;-93
2022/12/04 10:26:40;;;;;;;43.78;18.70;;;1.60;99.90;;;;;;6224704;23;20015;-93
2022/12/04 10:29:07;;;;;;;;;;;1.60;99.90;;;;;;6222167;23;20367;-95
2022/12/04 10:31:36;;;;;;;44.35;17.85;;;1.60;99.90;;;;;;6221490;23;19915;-94
2022/12/04 10:34:12;;;;;;;41.65;15.95;;;1.70;99.90;;;;;;6247484;23;20012;-91
2022/12/04 10:36:40;;;;;;;40.08;16.02;;;1.70;99.90;;;;;;6220921;23;20373;-92
2022/12/04 10:39:41;;;;;;;38.85;17.35;;;1.70;99.90;;;;;;6246064;23;20015;-91
2022/12/04 10:42:28;;;;;;;41.55;17.83;;;1.70;99.90;;;;;;6183418;22;20016;-92
2022/12/04 10:44:54;;;;;;;38.70;17.10;;;1.80;99.90;;;;;;6244896;23;20449;-91
2022/12/04 10:47:23;;;;;;;36.97;16.60;;;1.80;99.90;;;;;;6248943;23;20044;-95
2022/12/04 10:49:59;;;;;;;39.75;18.20;;;1.80;99.90;;;;;;6250004;23;20391;-92
2022/12/04 10:52:25;;;;;;;42.88;17.73;;;1.80;99.90;;;;;;6221317;23;20426;-92
2022/12/04 10:54:59;;;;;;;42.78;16.80;;;1.90;99.90;;;;;;6248427;23;20346;-91
2022/12/04 10:57:39;;;;;;;38.33;18.42;;;1.90;99.90;;;;;;6245401;23;20323;-92
2022/12/04 11:00:26;;;;;;;40.67;16.13;;;2.00;99.90;;;;;;6246287;23;20016;-92
2022/12/04 11:02:54;;;;;;;37.28;15.63;;;2.00;99.90;;;;;;6247270;23;20235;-92
2022/12/04 11:05:33;;;;;;;36.67;16.65;;;2.00;99.90;;;;;;6220441;23;20019;-92
2022/12/04 11:08:02;;;;;;;36.63;15.13;;;2.00;99.90;;;;;;6245641;23;20103;-91
2022/12/04 11:10:35;;;;;;;34.67;14.65;;;2.10;99.90;;;;;;6222685;23;20059;-91
2022/12/04 11:13:13;;;;;;;33.83;14.10;;;2.10;99.90;;;;;;6246236;23;20008;-93
2022/12/04 11:15:48;;;;;;;32.45;14.32;;;2.20;99.90;;;;;;6247695;22;20087;-92
2022/12/04 11:18:18;;;;;;;31.27;12.57;;;2.20;99.90;;;;;;6247711;23;20341;-88
2022/12/04 11:21:00;;;;;;;33.05;13.23;;;2.20;99.90;;;;;;6248623;23;20058;-93
2022/12/04 11:23:31;;;;;;;32.50;14.27;;;2.20;99.90;;;;;;6245274;23;20365;-92
2022/12/04 11:25:58;;;;;;;32.67;13.88;;;2.30;99.90;;;;;;6247129;23;20012;-90
2022/12/04 11:28:29;;;;;;;24.00;10.85;;;2.30;99.90;;;;;;6220658;23;20016;-91
2022/12/04 11:30:57;;;;;;;;;;;2.30;99.90;;;;;;6247185;23;20020;-94
2022/12/04 11:33:32;;;;;;;30.00;13.10;;;2.40;99.90;;;;;;6250731;23;19955;-89
2022/12/04 11:36:02;;;;;;;31.38;12.98;;;2.40;99.90;;;;;;6219216;23;20043;-93
2022/12/04 11:38:30;;;;;;;30.27;13.63;;;2.50;99.90;;;;;;6244923;23;20027;-92
2022/12/04 11:40:57;;;;;;;31.90;13.57;;;2.50;99.90;;;;;;6246705;23;20020;-92
2022/12/04 11:43:26;;;;;;;29.30;13.73;;;2.50;99.90;;;;;;6249011;23;20413;-94
2022/12/04 11:45:53;;;;;;;28.33;12.60;;;2.60;99.90;;;;;;6246335;23;20020;-92
2022/12/04 11:48:20;;;;;;;31.73;13.98;;;2.60;99.90;;;;;;6223792;23;20008;-94
2022/12/04 11:50:56;;;;;;;30.75;14.02;;;2.60;99.90;;;;;;6224775;23;20012;-92
2022/12/04 11:53:37;;;;;;;29.05;13.75;;;2.70;99.90;;;;;;6228581;23;20012;-94
2022/12/04 11:56:24;;;;;;;;;;;2.60;99.90;;;;;;6231511;23;20011;-91
2022/12/04 11:59:08;;;;;;;35.45;14.38;;;2.60;99.90;;;;;;6225265;23;19927;-94
2022/12/04 12:02:10;;;;;;;29.63;14.10;;;2.60;99.90;;;;;;6226319;23;20020;-94
2022/12/04 12:04:51;;;;;;;29.92;12.85;;;2.50;99.90;;;;;;6222426;23;20012;-92
2022/12/04 12:07:33;;;;;;;27.13;12.77;;;2.50;99.90;;;;;;6247035;23;20020;-92
2022/12/04 12:10:09;;;;;;;30.20;12.23;;;2.60;99.90;;;;;;6221018;23;20354;-93
2022/12/04 12:12:55;;;;;;;25.95;12.43;;;2.50;99.90;;;;;;6245055;23;20020;-93
2022/12/04 12:15:45;;;;;;;32.92;13.25;;;2.50;99.90;;;;;;6244818;23;20016;-91
2022/12/04 12:18:26;;;;;;;28.83;12.82;;;2.50;99.90;;;;;;6246059;23;20055;-92
2022/12/04 12:21:03;;;;;;;27.27;12.95;;;2.50;99.90;;;;;;6249544;23;20062;-92
2022/12/04 12:24:06;;;;;;;26.95;11.95;;;2.50;99.90;;;;;;6246469;23;20012;-90
2022/12/04 12:27:15;;;;;;;28.13;12.82;;;2.60;99.90;;;;;;6248767;23;20016;-90
2022/12/04 12:29:49;;;;;;;29.50;12.93;;;2.60;99.90;;;;;;6222209;23;20446;-93
2022/12/04 12:32:44;;;;;;;28.55;12.88;;;2.60;99.90;;;;;;6248922;23;20012;-92
2022/12/04 12:35:31;;;;;;;27.60;11.90;;;2.60;99.90;;;;;;6245637;23;20092;-89
2022/12/04 12:38:02;;;;;;;25.65;11.90;;;2.60;99.90;;;;;;6244712;23;20021;-91
2022/12/04 12:40:31;;;;;;;;;;;2.60;99.90;;;;;;6222541;23;20050;-91
2022/12/04 12:43:09;;;;;;;28.13;12.20;;;2.60;99.90;;;;;;6246019;23;19990;-90
2022/12/04 12:45:54;;;;;;;27.52;12.30;;;2.60;99.90;;;;;;6218618;23;20031;-92
2022/12/04 12:48:31;;;;;;;32.10;13.95;;;2.60;99.90;;;;;;6214748;23;20020;-91
2022/12/04 12:51:32;;;;;;;27.77;12.35;;;2.60;99.90;;;;;;6216324;23;20052;-92
2022/12/04 12:54:09;;;;;;;28.77;12.35;;;2.60;99.90;;;;;;6216071;23;20067;-91
2022/12/04 12:56:39;;;;;;;26.77;13.55;;;2.60;99.90;;;;;;6214945;23;20187;-88
2022/12/04 12:59:14;;;;;;;27.25;11.95;;;2.60;99.90;;;;;;6214148;23;20095;-90
2022/12/04 13:01:53;;;;;;;28.35;12.57;;;2.70;99.90;;;;;;6214776;23;20098;-91
2022/12/04 13:04:48;;;;;;;26.52;11.55;;;2.70;99.90;;;;;;6213339;23;20060;-91
2022/12/04 13:07:16;;;;;;;26.27;10.63;;;2.70;99.90;;;;;;6209938;23;20065;-91
2022/12/04 13:09:51;;;;;;;27.42;12.02;;;2.70;99.90;;;;;;6214924;23;20044;-91
2022/12/04 13:12:19;;;;;;;26.75;12.30;;;2.70;99.90;;;;;;6189329;23;20015;-91
2022/12/04 13:14:45;;;;;;;25.80;10.57;;;2.70;99.90;;;;;;6213963;23;20042;-94